West Magic, Idaho
Current Conditions -  °F | °C
As of 12:53 PM on Thursday 23 Oct 2014 (Local Time) from KJER Reporting Station
Clear Clear  
Wind Chill: 60°   Ceiling: Unl
Heat Index: 60°   Visibility: 10mi
Dew Point: 34°   Wind: 7mph
Humidity: 38%   Direction: 240°WSW
Pressure: 30.11"   Gusts: NA
Location:  42.9609°N, 114.301°W
Report Text: KJER 231853Z AUTO 24006KT 10SM CLR 16/01 A3011 RMK AO2 SLP183 T01560011
Loading
Personal Weather Stations






























Interactive Weather Map
Tropical Storm Tracking
New forecast layout! Learn more

10-Day Weather Forecast

Advertisements
Track Severe Weather on mobile